Time;durP1;ratioP1;P1;durP2;ratioP2;P2;SDS_P1;SDS_P2;PMS_P1;PMS_P2;Temp;Humidity;BMP_temperature;BMP_pressure;BME280_temperature;BME280_humidity;BME280_pressure;Samples;Min_cycle;Max_cycle;Signal;HPM_P1;HPM_P2
2023/07/09 03:01:47;;;;;;;116.57;109.85;;;18.10;99.90;;;;;;5287389;23;20250;-69
2023/07/09 03:04:14;;;;;;;140.50;133.38;;;18.10;99.90;;;;;;4925780;29;20286;-69
2023/07/09 03:06:40;;;;;;;157.70;149.30;;;18.10;99.90;;;;;;4914980;29;20190;-69
2023/07/09 03:09:06;;;;;;;181.57;171.90;;;18.10;99.90;;;;;;4914821;29;20211;-68
2023/07/09 03:11:34;;;;;;;126.55;119.28;;;18.10;99.90;;;;;;4903948;29;20624;-69
2023/07/09 03:14:01;;;;;;;141.45;133.63;;;18.10;99.90;;;;;;4895446;29;20282;-69
2023/07/09 03:16:28;;;;;;;137.82;130.35;;;18.10;99.90;;;;;;4926256;23;20854;-68
2023/07/09 03:18:55;;;;;;;102.45;96.60;;;18.00;99.90;;;;;;4912290;29;20203;-64
2023/07/09 03:21:21;;;;;;;64.13;60.47;;;18.00;99.90;;;;;;4895612;29;20206;-68
2023/07/09 03:23:47;;;;;;;146.98;138.20;;;18.00;99.90;;;;;;4914681;29;20195;-65
2023/07/09 03:26:13;;;;;;;185.05;174.70;;;17.90;99.90;;;;;;4914457;29;20269;-66
2023/07/09 03:28:39;;;;;;;215.63;203.60;;;17.90;99.90;;;;;;4913569;29;20214;-65
2023/07/09 03:31:04;;;;;;;223.25;211.00;;;17.80;99.90;;;;;;4911765;29;20317;-65
2023/07/09 03:33:31;;;;;;;197.48;186.90;;;17.80;99.90;;;;;;4915914;29;20601;-66
2023/07/09 03:35:57;;;;;;;148.38;140.48;;;17.80;99.90;;;;;;4914417;29;20237;-66
2023/07/09 03:38:23;;;;;;;172.88;163.95;;;17.80;99.90;;;;;;4913328;29;20266;-66
2023/07/09 03:40:53;;;;;;;237.43;224.98;;;17.80;99.90;;;;;;4912464;29;20247;-66
2023/07/09 03:43:20;;;;;;;234.52;222.27;;;17.80;99.90;;;;;;4912823;29;20194;-66
2023/07/09 03:45:47;;;;;;;266.85;252.75;;;17.90;99.90;;;;;;4909050;29;20222;-66
2023/07/09 03:48:15;;;;;;;266.00;251.45;;;17.90;99.90;;;;;;4916578;29;20247;-66
2023/07/09 03:50:41;;;;;;;220.02;208.43;;;17.90;99.90;;;;;;4917802;29;20251;-66
2023/07/09 03:53:07;;;;;;;233.85;221.27;;;17.90;99.90;;;;;;4917901;29;20190;-66
2023/07/09 03:55:33;;;;;;;207.30;196.25;;;17.90;99.90;;;;;;4917702;29;20575;-66
2023/07/09 03:57:59;;;;;;;171.68;162.73;;;17.90;99.90;;;;;;4916817;29;20195;-66
2023/07/09 04:00:25;;;;;;;198.10;187.48;;;18.00;99.90;;;;;;4898220;29;20707;-66
2023/07/09 04:02:52;;;;;;;178.80;169.23;;;17.90;99.90;;;;;;4917894;29;20234;-66
2023/07/09 04:05:18;;;;;;;147.85;139.98;;;17.90;99.90;;;;;;4917484;29;20191;-67
2023/07/09 04:07:44;;;;;;;135.40;127.93;;;18.00;99.90;;;;;;4916779;29;20722;-65
2023/07/09 04:10:11;;;;;;;129.85;122.97;;;18.00;99.90;;;;;;4915312;29;20187;-66
2023/07/09 04:12:37;;;;;;;110.72;104.75;;;18.00;99.90;;;;;;4916888;29;20226;-66
2023/07/09 04:15:06;;;;;;;78.20;73.90;;;18.10;99.90;;;;;;4917309;29;20559;-66
2023/07/09 04:17:32;;;;;;;58.15;54.90;;;18.10;99.90;;;;;;4916808;29;20227;-66
2023/07/09 04:19:58;;;;;;;53.33;50.38;;;18.20;99.90;;;;;;4916559;29;20193;-66
2023/07/09 04:22:25;;;;;;;52.67;49.72;;;18.20;99.90;;;;;;4917272;29;20326;-66
2023/07/09 04:24:52;;;;;;;53.63;50.72;;;18.20;99.90;;;;;;4916713;29;20186;-66
2023/07/09 04:27:18;;;;;;;57.35;54.22;;;18.30;99.90;;;;;;4916423;29;20233;-66
2023/07/09 04:29:44;;;;;;;68.00;64.22;;;18.30;99.90;;;;;;4917520;29;20179;-66
2023/07/09 04:32:15;;;;;;;70.65;67.03;;;18.40;99.90;;;;;;4916490;29;20190;-66
2023/07/09 04:34:41;;;;;;;64.50;61.00;;;18.50;99.90;;;;;;4916772;29;20191;-66
2023/07/09 04:37:10;;;;;;;47.33;44.83;;;18.60;99.90;;;;;;4916482;29;20261;-66
2023/07/09 04:39:36;;;;;;;47.22;44.22;;;18.60;99.90;;;;;;4922081;29;20655;-67
2023/07/09 04:42:02;;;;;;;60.53;57.40;;;18.60;99.90;;;;;;4916065;29;20203;-66
2023/07/09 04:44:28;;;;;;;136.60;129.70;;;18.70;99.90;;;;;;4924755;29;20282;-67
2023/07/09 04:46:54;;;;;;;285.20;270.60;;;18.80;99.90;;;;;;4898972;29;20206;-66
2023/07/09 04:49:20;;;;;;;318.80;302.02;;;18.80;99.90;;;;;;4916661;29;20222;-67
2023/07/09 04:51:46;;;;;;;375.08;354.50;;;18.90;99.90;;;;;;4916818;29;20563;-66
2023/07/09 04:54:13;;;;;;;361.77;341.52;;;19.00;99.90;;;;;;4896799;29;20195;-67
2023/07/09 04:56:39;;;;;;;295.50;279.20;;;19.20;99.90;;;;;;4908385;29;20218;-67
2023/07/09 04:59:05;;;;;;;174.27;164.85;;;19.30;99.90;;;;;;4915629;29;20564;-67
2023/07/09 05:01:31;;;;;;;123.70;117.07;;;19.50;99.90;;;;;;4916518;29;20234;-67
2023/07/09 05:03:56;;;;;;;172.57;163.88;;;19.70;99.90;;;;;;4916729;29;20205;-67
2023/07/09 05:06:22;;;;;;;102.95;97.45;;;20.00;99.90;;;;;;4898465;29;20219;-67
2023/07/09 05:08:48;;;;;;;16.30;15.05;;;20.30;99.90;;;;;;4896233;29;20314;-67
2023/07/09 05:11:15;;;;;;;37.20;34.92;;;20.70;99.90;;;;;;4913567;29;20198;-67
2023/07/09 05:13:41;;;;;;;162.65;154.55;;;21.30;99.90;;;;;;4897230;29;20194;-67
2023/07/09 05:16:07;;;;;;;26.25;24.75;;;22.00;99.90;;;;;;4912080;29;20597;-67
2023/07/09 05:18:32;;;;;;;117.57;111.32;;;22.50;99.90;;;;;;4915121;29;20286;-67
2023/07/09 05:20:58;;;;;;;133.73;126.60;;;22.90;99.90;;;;;;4916489;29;20195;-66
2023/07/09 05:23:25;;;;;;;62.83;59.53;;;23.50;99.90;;;;;;4915841;29;20649;-67
2023/07/09 05:25:58;;;;;;;23.95;22.40;;;23.80;99.90;;;;;;4916035;29;20555;-67
2023/07/09 05:28:24;;;;;;;10.23;9.27;;;24.30;99.90;;;;;;4915130;29;20226;-67
2023/07/09 05:30:49;;;;;;;8.32;7.72;;;24.90;99.90;;;;;;4916063;29;20183;-68
2023/07/09 05:33:17;;;;;;;18.98;17.70;;;25.30;99.90;;;;;;4916052;29;20351;-66
2023/07/09 05:35:42;;;;;;;17.88;16.70;;;25.60;99.90;;;;;;4915828;29;20207;-67
2023/07/09 05:38:08;;;;;;;19.58;18.25;;;25.90;99.90;;;;;;4913733;29;21177;-66
2023/07/09 05:40:34;;;;;;;63.85;60.58;;;26.20;99.90;;;;;;4897980;29;20210;-65
2023/07/09 05:43:00;;;;;;;63.60;60.33;;;26.60;99.90;;;;;;4916071;29;20198;-66
2023/07/09 05:45:26;;;;;;;17.50;16.38;;;26.80;99.90;;;;;;4915814;29;20201;-66
2023/07/09 05:47:52;;;;;;;14.77;13.77;;;27.20;99.90;;;;;;4914775;29;20800;-65
2023/07/09 05:50:17;;;;;;;17.15;16.05;;;27.40;99.90;;;;;;4915695;29;20186;-65
2023/07/09 05:52:44;;;;;;;10.85;10.20;;;27.80;99.90;;;;;;4915851;29;20207;-66
2023/07/09 05:55:09;;;;;;;7.63;6.93;;;27.90;99.90;;;;;;4915698;29;20266;-65
2023/07/09 05:57:35;;;;;;;7.68;6.32;;;28.20;99.60;;;;;;4908513;29;20703;-66
2023/07/09 06:00:01;;;;;;;8.10;7.43;;;28.40;97.90;;;;;;4903421;29;20183;-66
2023/07/09 06:02:27;;;;;;;9.27;8.60;;;28.40;97.70;;;;;;4914172;29;20187;-66
2023/07/09 06:04:53;;;;;;;9.10;8.43;;;28.50;96.90;;;;;;4912886;29;20190;-66
2023/07/09 06:07:18;;;;;;;8.88;8.27;;;28.70;96.50;;;;;;4914369;29;20290;-66
2023/07/09 06:09:47;;;;;;;6.85;6.25;;;29.20;95.80;;;;;;4915088;29;20605;-66
2023/07/09 06:12:14;;;;;;;6.75;6.25;;;29.30;94.90;;;;;;4921306;29;20220;-67
2023/07/09 06:14:39;;;;;;;7.10;6.60;;;29.10;94.70;;;;;;4914855;29;20179;-67
2023/07/09 06:17:06;;;;;;;7.25;6.75;;;29.20;94.60;;;;;;4914656;29;20219;-66
2023/07/09 06:19:32;;;;;;;8.95;8.30;;;29.50;94.30;;;;;;4914135;29;20750;-67
2023/07/09 06:21:58;;;;;;;9.60;8.70;;;29.60;93.30;;;;;;4921577;29;20269;-66
2023/07/09 06:24:24;;;;;;;7.25;6.72;;;29.90;93.00;;;;;;4921625;29;20191;-66
2023/07/09 06:26:49;;;;;;;9.45;8.57;;;29.80;92.10;;;;;;4914463;29;20214;-66
2023/07/09 06:29:15;;;;;;;6.43;5.95;;;29.60;92.50;;;;;;4914663;29;20350;-67
2023/07/09 06:31:42;;;;;;;8.20;7.35;;;29.90;91.90;;;;;;4915157;29;20191;-66
2023/07/09 06:34:09;;;;;;;10.18;8.00;;;30.00;91.60;;;;;;4914147;29;20280;-67
2023/07/09 06:36:35;;;;;;;8.65;7.95;;;30.10;91.60;;;;;;4907279;29;20214;-66
2023/07/09 06:39:02;;;;;;;7.72;7.22;;;30.50;91.30;;;;;;4914963;29;20543;-66
2023/07/09 06:41:28;;;;;;;10.05;7.63;;;30.70;90.60;;;;;;4914404;29;20213;-66
2023/07/09 06:43:53;;;;;;;9.93;9.15;;;31.00;90.10;;;;;;4915237;29;20702;-67
2023/07/09 06:46:20;;;;;;;16.33;15.35;;;31.20;89.60;;;;;;4914664;29;20218;-66
2023/07/09 06:48:46;;;;;;;15.48;14.38;;;31.60;88.00;;;;;;4914221;29;20218;-66
2023/07/09 06:51:12;;;;;;;20.15;18.85;;;31.50;85.90;;;;;;4894094;29;20704;-67
2023/07/09 06:53:39;;;;;;;30.23;28.40;;;31.50;85.90;;;;;;4907288;29;20600;-67
2023/07/09 06:56:05;;;;;;;35.65;33.58;;;31.60;85.50;;;;;;4914270;29;20294;-66
2023/07/09 06:58:33;;;;;;;40.30;38.05;;;32.00;84.40;;;;;;4913873;29;20758;-66
2023/07/09 07:01:04;;;;;;;52.13;49.45;;;32.20;84.00;;;;;;4915261;29;20195;-66
2023/07/09 07:03:32;;;;;;;63.78;60.45;;;32.50;82.30;;;;;;4913736;29;20234;-67
2023/07/09 07:05:58;;;;;;;67.60;63.90;;;32.60;81.90;;;;;;4914350;29;20728;-66
2023/07/09 07:08:25;;;;;;;31.35;29.50;;;32.90;80.40;;;;;;4914043;29;20289;-67
2023/07/09 07:11:01;;;;;;;23.20;21.73;;;33.20;79.50;;;;;;4914282;29;20183;-66
2023/07/09 07:13:38;;;;;;;18.35;17.15;;;32.80;79.20;;;;;;4914495;29;20285;-67
2023/07/09 07:16:07;;;;;;;15.93;14.82;;;32.60;79.60;;;;;;4914478;29;20304;-67
2023/07/09 07:18:33;;;;;;;13.85;12.80;;;32.80;78.60;;;;;;4907888;29;20229;-68
2023/07/09 07:20:59;;;;;;;14.90;13.80;;;32.50;78.60;;;;;;4913475;29;20183;-65
2023/07/09 07:23:25;;;;;;;13.40;12.30;;;32.80;78.80;;;;;;4912736;29;20195;-67
2023/07/09 07:25:52;;;;;;;10.65;9.80;;;32.80;77.60;;;;;;4913810;29;20725;-67
2023/07/09 07:28:18;;;;;;;11.15;10.15;;;32.60;77.60;;;;;;4913941;29;20690;-68
2023/07/09 07:30:44;;;;;;;10.93;10.25;;;32.70;77.50;;;;;;4914586;29;20199;-67
2023/07/09 07:33:13;;;;;;;11.63;10.45;;;32.90;77.70;;;;;;4914099;29;20241;-67
2023/07/09 07:35:38;;;;;;;11.07;10.18;;;33.30;77.10;;;;;;4914118;29;20217;-68
2023/07/09 07:38:04;;;;;;;12.18;11.27;;;33.30;75.30;;;;;;4893925;29;20195;-67
2023/07/09 07:40:30;;;;;;;12.52;9.88;;;33.00;75.70;;;;;;4913232;29;20232;-69
2023/07/09 07:42:56;;;;;;;12.65;11.75;;;32.90;76.20;;;;;;4914167;29;20190;-69
2023/07/09 07:45:22;;;;;;;13.82;12.93;;;33.40;75.80;;;;;;4913520;29;20255;-68
2023/07/09 07:47:50;;;;;;;27.05;25.50;;;33.90;74.00;;;;;;4913757;29;20218;-72
2023/07/09 07:50:16;;;;;;;56.78;53.53;;;34.40;72.20;;;;;;4913699;29;20191;-69
2023/07/09 07:52:42;;;;;;;70.40;66.60;;;34.50;70.40;;;;;;4914122;29;20343;-66
2023/07/09 07:55:09;;;;;;;80.53;76.57;;;34.30;69.80;;;;;;4914287;29;20278;-66
2023/07/09 07:57:35;;;;;;;88.25;83.80;;;34.40;69.20;;;;;;4913207;29;20213;-66
2023/07/09 08:00:01;;;;;;;74.60;70.93;;;34.20;69.80;;;;;;4914528;29;20183;-67
2023/07/09 08:02:26;;;;;;;89.90;85.30;;;34.30;69.00;;;;;;4914020;29;20190;-68
2023/07/09 08:04:53;;;;;;;79.78;75.15;;;34.00;68.90;;;;;;4893777;29;20328;-66
2023/07/09 08:07:19;;;;;;;64.53;61.22;;;33.90;69.60;;;;;;4911122;29;20294;-68
2023/07/09 08:09:47;;;;;;;64.00;60.75;;;34.30;69.30;;;;;;4914071;29;20229;-68
2023/07/09 08:12:14;;;;;;;60.17;56.72;;;34.60;68.50;;;;;;4893762;29;20187;-66
2023/07/09 08:14:42;;;;;;;80.20;75.97;;;35.00;67.50;;;;;;4910308;29;20574;-66
2023/07/09 08:17:08;;;;;;;140.50;133.60;;;35.20;66.90;;;;;;4893407;29;20739;-66
2023/07/09 08:19:49;;;;;;;129.82;123.38;;;35.20;64.70;;;;;;4913154;29;20298;-66
2023/07/09 08:22:16;;;;;;;132.55;125.93;;;35.20;65.20;;;;;;4894235;29;20195;-66
2023/07/09 08:24:42;;;;;;;144.55;137.25;;;35.60;64.40;;;;;;4913871;29;20191;-66
2023/07/09 08:27:09;;;;;;;138.88;131.63;;;35.70;62.90;;;;;;4912649;29;20211;-66
2023/07/09 08:29:36;;;;;;;117.85;112.10;;;35.60;62.10;;;;;;4917428;29;20314;-82
2023/07/09 08:32:03;;;;;;;167.88;159.57;;;35.40;62.60;;;;;;4906440;29;20206;-82
2023/07/09 08:34:29;;;;;;;152.35;144.63;;;35.80;62.60;;;;;;4914175;29;20198;-82
2023/07/09 08:36:55;;;;;;;143.40;136.00;;;35.90;61.70;;;;;;4934594;29;20283;-82
2023/07/09 08:39:21;;;;;;;157.77;149.95;;;35.70;62.00;;;;;;4941070;29;20199;-82
2023/07/09 08:42:01;;;;;;;144.30;136.60;;;35.80;63.80;;;;;;4921835;29;20214;-82
2023/07/09 08:44:33;;;;;;;158.02;150.20;;;35.90;60.80;;;;;;4935233;29;20222;-82
2023/07/09 08:47:14;;;;;;;146.90;139.52;;;35.90;61.40;;;;;;4916177;29;20270;-81
2023/07/09 08:50:03;;;;;;;108.85;103.45;;;35.80;61.40;;;;;;4914981;29;20223;-82
2023/07/09 08:52:42;;;;;;;119.22;113.00;;;35.40;62.10;;;;;;4913633;29;20651;-81
2023/07/09 08:55:16;;;;;;;103.07;97.78;;;35.40;61.60;;;;;;4911828;29;20183;-81
2023/07/09 08:57:47;;;;;;;100.05;95.07;;;35.50;60.80;;;;;;4911025;29;20183;-83
2023/07/09 09:00:23;;;;;;;129.32;122.60;;;35.60;60.90;;;;;;4934896;29;20183;-82
2023/07/09 09:02:55;;;;;;;140.18;133.25;;;36.30;61.10;;;;;;4918284;29;20207;-81
2023/07/09 09:05:23;;;;;;;152.88;145.07;;;36.60;59.30;;;;;;4920987;29;20611;-81
2023/07/09 09:08:04;;;;;;;132.50;125.72;;;36.50;59.10;;;;;;4923467;29;20203;-82
2023/07/09 09:10:39;;;;;;;155.73;148.13;;;36.60;58.50;;;;;;4920015;29;20197;-81
2023/07/09 09:13:17;;;;;;;150.48;143.15;;;36.80;58.40;;;;;;4916293;29;20190;-82
2023/07/09 09:15:45;;;;;;;112.15;106.60;;;36.80;57.90;;;;;;4935750;29;20222;-81
2023/07/09 09:18:30;;;;;;;113.82;108.18;;;36.90;58.00;;;;;;4950502;23;20310;-77
2023/07/09 09:21:08;;;;;;;108.43;102.93;;;37.00;57.60;;;;;;4925893;29;20191;-77
2023/07/09 09:23:45;;;;;;;108.47;103.05;;;37.10;57.60;;;;;;4923989;29;20226;-74
2023/07/09 09:26:34;;;;;;;105.93;100.65;;;37.60;57.30;;;;;;4901144;29;20624;-75
2023/07/09 09:29:00;;;;;;;98.35;93.40;;;38.50;55.20;;;;;;4892153;29;20566;-75
2023/07/09 09:31:28;;;;;;;87.50;83.07;;;38.70;54.20;;;;;;4897588;29;20542;-75
2023/07/09 09:33:54;;;;;;;84.63;80.30;;;38.50;54.60;;;;;;4888235;29;20202;-74
2023/07/09 09:36:23;;;;;;;93.18;88.40;;;38.60;53.50;;;;;;4897233;29;20232;-75
2023/07/09 09:38:50;;;;;;;91.70;86.97;;;38.70;52.60;;;;;;4902517;29;20219;-74
2023/07/09 09:41:25;;;;;;;95.28;90.50;;;38.70;52.00;;;;;;4894088;29;20216;-76
2023/07/09 09:43:53;;;;;;;74.22;70.43;;;38.90;51.60;;;;;;4896647;29;20195;-75
2023/07/09 09:46:22;;;;;;;63.70;60.00;;;38.90;50.70;;;;;;4896514;29;20195;-75
2023/07/09 09:48:50;;;;;;;43.85;41.60;;;39.40;50.00;;;;;;4896704;29;20226;-76
2023/07/09 09:51:18;;;;;;;27.00;25.48;;;39.50;49.70;;;;;;4897885;29;20192;-74
2023/07/09 09:53:59;;;;;;;26.70;25.17;;;39.10;49.00;;;;;;4898311;29;20664;-76
2023/07/09 09:56:31;;;;;;;15.43;14.15;;;39.10;49.10;;;;;;4885788;29;20211;-68
2023/07/09 09:58:58;;;;;;;24.02;22.10;;;39.50;48.10;;;;;;4887612;29;20310;-68
2023/07/09 10:01:29;;;;;;;21.95;20.25;;;39.30;48.60;;;;;;4896292;29;20184;-69
2023/07/09 10:03:58;;;;;;;15.77;14.60;;;39.40;48.70;;;;;;4896517;29;20192;-68
2023/07/09 10:06:37;;;;;;;17.55;16.42;;;39.80;46.10;;;;;;4877383;29;20191;-68
2023/07/09 10:09:21;;;;;;;15.85;14.75;;;39.60;47.00;;;;;;4875039;29;20559;-68
2023/07/09 10:11:55;;;;;;;19.85;18.08;;;39.80;46.80;;;;;;4896518;29;20749;-68
2023/07/09 10:14:46;;;;;;;17.27;15.82;;;39.80;47.40;;;;;;4896305;29;20202;-70
2023/07/09 10:17:20;;;;;;;23.38;21.85;;;39.60;46.50;;;;;;4895427;29;20242;-68
2023/07/09 10:20:08;;;;;;;25.20;23.30;;;40.00;45.90;;;;;;4897070;29;20804;-68
2023/07/09 10:22:44;;;;;;;19.40;18.38;;;40.60;46.00;;;;;;4879559;29;20259;-68
2023/07/09 10:25:38;;;;;;;11.32;10.40;;;40.40;45.20;;;;;;4895845;29;20191;-68
2023/07/09 10:28:11;;;;;;;10.32;9.55;;;40.70;44.30;;;;;;4887167;29;20307;-76
2023/07/09 10:31:15;;;;;;;7.13;6.43;;;41.00;44.50;;;;;;4898868;29;20191;-78
2023/07/09 10:34:05;;;;;;;5.03;4.57;;;41.20;43.80;;;;;;4882865;29;20231;-77
2023/07/09 10:36:39;;;;;;;5.20;4.80;;;41.00;43.10;;;;;;4898799;29;20198;-79
2023/07/09 10:39:11;;;;;;;8.88;8.18;;;40.50;43.40;;;;;;4882728;29;20218;-77
2023/07/09 10:41:39;;;;;;;10.82;9.88;;;39.80;43.50;;;;;;4897086;29;20192;-76
2023/07/09 10:44:22;;;;;;;12.65;11.23;;;39.50;44.10;;;;;;4901280;29;20191;-78
2023/07/09 10:46:54;;;;;;;7.88;7.15;;;40.20;43.50;;;;;;4909426;29;20236;-77
2023/07/09 10:49:22;;;;;;;8.82;8.18;;;41.10;40.50;;;;;;4903503;29;20206;-77
2023/07/09 10:51:57;;;;;;;11.32;10.55;;;41.30;39.60;;;;;;4899957;29;20214;-78
2023/07/09 10:54:29;;;;;;;12.88;12.07;;;41.40;38.40;;;;;;4905297;29;20195;-77
2023/07/09 10:57:03;;;;;;;18.35;17.23;;;41.60;38.30;;;;;;4897804;29;20216;-77
2023/07/09 10:59:35;;;;;;;20.10;19.00;;;42.30;38.00;;;;;;4894998;29;20222;-78
2023/07/09 11:02:27;;;;;;;31.10;29.33;;;42.70;38.30;;;;;;4884446;29;20673;-78
2023/07/09 11:04:56;;;;;;;40.65;38.53;;;43.10;37.70;;;;;;4902412;29;20206;-78
2023/07/09 11:07:34;;;;;;;40.50;38.20;;;42.30;37.80;;;;;;4883724;29;20216;-79
2023/07/09 11:10:06;;;;;;;34.22;32.08;;;41.30;38.10;;;;;;4891485;29;20270;-79
2023/07/09 11:12:41;;;;;;;46.85;44.35;;;41.20;39.10;;;;;;4901498;29;20255;-79
2023/07/09 11:15:21;;;;;;;60.25;56.83;;;41.10;38.30;;;;;;4906510;29;20191;-78
2023/07/09 11:17:48;;;;;;;54.75;51.72;;;41.20;37.90;;;;;;4900125;29;20227;-79
2023/07/09 11:20:33;;;;;;;67.28;63.83;;;41.40;38.00;;;;;;4905183;29;20188;-77
2023/07/09 11:23:24;;;;;;;50.50;47.72;;;41.70;37.90;;;;;;4909811;29;20206;-78
2023/07/09 11:26:09;;;;;;;47.35;44.50;;;42.30;36.10;;;;;;4889210;29;20200;-79
2023/07/09 11:28:37;;;;;;;27.92;26.15;;;43.00;36.60;;;;;;4890684;29;20210;-81
2023/07/09 11:31:22;;;;;;;6.78;6.20;;;44.00;35.30;;;;;;4886192;29;20203;-79
2023/07/09 11:34:07;;;;;;;7.18;4.97;;;44.30;34.20;;;;;;4902235;29;20202;-80
2023/07/09 11:36:35;;;;;;;6.82;4.57;;;44.20;33.80;;;;;;4889835;29;20223;-78
2023/07/09 11:39:02;;;;;;;8.23;4.75;;;43.70;33.60;;;;;;4909304;29;20207;-77
2023/07/09 11:41:38;;;;;;;7.65;5.00;;;43.20;34.00;;;;;;4899020;29;20207;-79
2023/07/09 11:44:28;;;;;;;5.50;4.95;;;43.50;33.80;;;;;;4882934;29;20187;-79
2023/07/09 11:47:12;;;;;;;5.00;4.60;;;43.50;33.40;;;;;;4878340;29;20833;-79
2023/07/09 11:50:01;;;;;;;5.57;4.57;;;43.60;33.20;;;;;;4904459;29;20250;-80
2023/07/09 11:52:47;;;;;;;7.10;4.50;;;43.60;33.50;;;;;;4890682;29;20195;-79
2023/07/09 11:55:41;;;;;;;9.68;4.60;;;44.20;32.40;;;;;;4889632;29;20203;-78
2023/07/09 11:58:13;;;;;;;5.10;4.68;;;44.00;31.50;;;;;;4884578;29;20817;-79
2023/07/09 12:00:44;;;;;;;5.75;4.78;;;42.70;32.60;;;;;;4907763;29;20200;-79
2023/07/09 12:03:33;;;;;;;16.27;14.80;;;41.80;33.50;;;;;;4910434;29;20198;-78
2023/07/09 12:06:05;;;;;;;13.32;12.43;;;41.50;33.80;;;;;;4887223;29;20267;-80
2023/07/09 12:08:38;;;;;;;9.02;5.15;;;42.20;34.00;;;;;;4906094;29;20217;-79
2023/07/09 12:11:05;;;;;;;9.82;5.57;;;43.00;32.70;;;;;;4917315;29;20199;-79
2023/07/09 12:13:38;;;;;;;7.22;5.07;;;43.40;32.70;;;;;;4889786;29;20226;-79
2023/07/09 12:16:04;;;;;;;7.03;5.30;;;43.50;32.30;;;;;;4904481;29;20709;-78
2023/07/09 12:18:30;;;;;;;5.05;4.43;;;43.20;32.50;;;;;;4892424;29;20228;-80
2023/07/09 12:20:56;;;;;;;7.75;5.00;;;42.90;32.70;;;;;;4894085;29;20194;-80
2023/07/09 12:23:27;;;;;;;5.15;4.65;;;42.80;32.60;;;;;;4901109;29;20180;-80
2023/07/09 12:25:53;;;;;;;6.15;4.50;;;43.30;32.30;;;;;;4926302;29;20180;-79
2023/07/09 12:28:21;;;;;;;5.47;4.32;;;43.10;31.80;;;;;;4909750;29;20204;-78
2023/07/09 12:30:49;;;;;;;5.93;5.00;;;43.60;31.90;;;;;;4924791;29;20278;-79
2023/07/09 12:33:20;;;;;;;5.60;4.22;;;43.80;33.00;;;;;;4920477;29;20187;-79
2023/07/09 12:35:49;;;;;;;5.20;4.20;;;44.60;31.50;;;;;;4885067;29;20191;-79
2023/07/09 12:38:23;;;;;;;7.68;4.47;;;44.90;30.40;;;;;;4909254;29;20211;-80
2023/07/09 12:40:51;;;;;;;7.70;5.05;;;44.30;30.50;;;;;;4905683;29;20255;-79
2023/07/09 12:43:27;;;;;;;6.53;4.72;;;43.40;30.80;;;;;;4889541;29;20207;-80
2023/07/09 12:45:54;;;;;;;7.75;4.22;;;42.80;31.50;;;;;;4899691;29;20192;-78
2023/07/09 12:48:26;;;;;;;5.63;4.72;;;43.00;31.80;;;;;;4892590;29;20215;-79
2023/07/09 12:50:56;;;;;;;6.15;4.90;;;43.50;31.00;;;;;;4894057;29;20259;-81
2023/07/09 12:53:28;;;;;;;7.60;6.07;;;44.80;30.10;;;;;;4901393;29;20197;-80
2023/07/09 12:55:59;;;;;;;12.77;7.20;;;44.80;30.00;;;;;;4913439;29;20191;-81
2023/07/09 12:58:30;;;;;;;10.48;9.63;;;45.50;29.50;;;;;;4911638;29;20234;-80
2023/07/09 13:00:57;;;;;;;13.18;11.85;;;45.80;29.50;;;;;;4909940;29;20283;-81
2023/07/09 13:03:29;;;;;;;13.77;12.73;;;45.60;29.70;;;;;;4891821;29;20188;-80
2023/07/09 13:06:03;;;;;;;14.20;13.10;;;46.00;29.20;;;;;;4888432;29;20239;-81
2023/07/09 13:08:39;;;;;;;22.23;20.48;;;45.90;29.70;;;;;;4904475;29;20211;-80
2023/07/09 13:11:18;;;;;;;18.83;17.60;;;44.90;29.70;;;;;;4909346;29;20278;-82
2023/07/09 13:13:58;;;;;;;13.40;12.07;;;44.80;30.10;;;;;;4893913;29;20226;-80
2023/07/09 13:16:25;;;;;;;12.85;11.82;;;45.10;29.90;;;;;;4905001;29;20194;-80
2023/07/09 13:18:51;;;;;;;12.18;11.15;;;45.00;30.10;;;;;;4893734;29;20228;-80
2023/07/09 13:21:19;;;;;;;11.98;10.98;;;44.60;30.60;;;;;;4888892;29;20340;-81
2023/07/09 13:23:46;;;;;;;9.57;8.77;;;44.40;30.30;;;;;;4888937;29;20259;-80
2023/07/09 13:26:13;;;;;;;6.95;5.85;;;43.90;31.10;;;;;;4904614;29;20319;-81
2023/07/09 13:28:39;;;;;;;7.55;5.25;;;43.30;31.30;;;;;;4905856;29;20219;-82
2023/07/09 13:31:17;;;;;;;5.55;4.50;;;43.10;32.50;;;;;;4910138;29;20295;-80
2023/07/09 13:33:44;;;;;;;8.32;6.35;;;43.00;32.70;;;;;;4906664;29;20239;-81
2023/07/09 13:36:13;;;;;;;13.52;12.32;;;44.20;31.10;;;;;;4906570;29;20262;-80
2023/07/09 13:38:39;;;;;;;23.90;22.35;;;45.10;30.00;;;;;;4916891;29;20208;-79
2023/07/09 13:41:12;;;;;;;17.45;16.48;;;44.70;29.50;;;;;;4894139;29;20192;-80
2023/07/09 13:43:41;;;;;;;16.00;14.90;;;44.30;29.90;;;;;;4902849;29;20192;-81
2023/07/09 13:46:07;;;;;;;20.02;18.75;;;44.30;30.10;;;;;;4903743;29;20267;-81
2023/07/09 13:48:35;;;;;;;20.40;19.10;;;45.10;29.30;;;;;;4885298;29;20223;-81
2023/07/09 13:51:01;;;;;;;22.00;20.58;;;45.10;29.40;;;;;;4906713;29;20192;-79
2023/07/09 13:53:31;;;;;;;21.27;20.02;;;45.30;29.20;;;;;;4904488;29;20203;-81
2023/07/09 13:55:58;;;;;;;28.25;26.48;;;45.50;29.80;;;;;;4904948;29;20203;-80
2023/07/09 13:58:25;;;;;;;29.10;27.20;;;45.70;29.10;;;;;;4903998;29;20247;-80
2023/07/09 14:00:59;;;;;;;29.00;27.00;;;46.10;29.10;;;;;;4907313;29;20191;-80
2023/07/09 14:03:29;;;;;;;21.17;19.85;;;47.00;28.80;;;;;;4907432;29;20195;-80
2023/07/09 14:05:55;;;;;;;14.68;13.70;;;47.20;28.10;;;;;;4882438;29;20184;-80
2023/07/09 14:08:21;;;;;;;4.68;3.90;;;47.40;28.20;;;;;;4899238;29;20214;-79
2023/07/09 14:10:49;;;;;;;5.28;4.40;;;47.70;28.10;;;;;;4882938;29;20198;-79
2023/07/09 14:13:23;;;;;;;17.45;16.20;;;46.40;28.10;;;;;;4902680;29;20263;-79
2023/07/09 14:15:49;;;;;;;49.83;47.05;;;44.70;29.30;;;;;;4902566;29;20823;-80
2023/07/09 14:18:22;;;;;;;21.67;20.48;;;43.40;30.30;;;;;;4899529;29;20223;-82
2023/07/09 14:20:49;;;;;;;6.93;6.32;;;42.20;30.90;;;;;;4903919;29;20744;-80
2023/07/09 14:23:17;;;;;;;5.38;4.88;;;41.80;31.50;;;;;;4907017;29;20184;-80
2023/07/09 14:25:44;;;;;;;8.70;5.20;;;42.40;31.40;;;;;;4892058;29;20241;-79
2023/07/09 14:28:19;;;;;;;7.10;6.25;;;43.00;30.60;;;;;;4909066;29;20219;-80
2023/07/09 14:30:46;;;;;;;10.93;9.95;;;43.30;30.70;;;;;;4901214;29;20191;-79
2023/07/09 14:33:15;;;;;;;18.80;17.50;;;44.30;29.80;;;;;;4908457;29;20195;-82
2023/07/09 14:35:41;;;;;;;35.95;33.65;;;44.70;30.70;;;;;;4904728;29;20191;-82
2023/07/09 14:38:33;;;;;;;34.80;32.63;;;45.40;29.50;;;;;;4905677;29;20231;-80
2023/07/09 14:41:01;;;;;;;37.60;35.40;;;45.70;29.70;;;;;;4882926;29;20268;-82
2023/07/09 14:43:26;;;;;;;31.00;29.17;;;44.90;29.80;;;;;;4895891;29;20196;-82
2023/07/09 14:45:52;;;;;;;22.15;20.48;;;44.00;30.40;;;;;;4891455;29;20215;-82
2023/07/09 14:48:19;;;;;;;16.48;15.52;;;43.90;30.60;;;;;;4904670;29;20240;-80
2023/07/09 14:50:47;;;;;;;11.73;10.73;;;43.10;31.30;;;;;;4890009;29;20207;-82
2023/07/09 14:53:20;;;;;;;9.98;4.22;;;42.20;33.00;;;;;;4905772;29;20192;-80
2023/07/09 14:55:46;;;;;;;5.65;4.30;;;42.00;32.60;;;;;;4892650;29;20206;-82
2023/07/09 14:58:17;;;;;;;5.93;4.18;;;41.90;33.50;;;;;;4914926;29;20210;-83
2023/07/09 15:00:46;;;;;;;7.30;6.63;;;42.70;32.00;;;;;;4903825;29;20240;-81
2023/07/09 15:03:20;;;;;;;16.05;14.68;;;43.30;31.10;;;;;;4916957;29;20234;-83
2023/07/09 15:05:45;;;;;;;13.48;12.30;;;43.80;30.30;;;;;;4883224;29;20212;-81
2023/07/09 15:08:18;;;;;;;20.90;19.60;;;43.80;31.10;;;;;;4891057;29;20223;-81
2023/07/09 15:10:45;;;;;;;26.23;24.77;;;44.40;30.50;;;;;;4880691;29;20672;-80
2023/07/09 15:13:26;;;;;;;13.35;12.38;;;44.30;30.40;;;;;;4886038;29;20196;-79
2023/07/09 15:15:52;;;;;;;5.45;4.90;;;43.30;31.50;;;;;;4888422;29;20214;-80
2023/07/09 15:18:19;;;;;;;5.35;3.92;;;42.00;32.40;;;;;;4913375;23;20824;-82
2023/07/09 15:20:53;;;;;;;5.40;4.43;;;41.80;33.10;;;;;;4917489;29;20264;-79
2023/07/09 15:23:21;;;;;;;10.25;9.25;;;41.90;33.40;;;;;;4917725;29;20191;-82
2023/07/09 15:25:47;;;;;;;6.65;4.50;;;42.30;33.70;;;;;;4906676;29;20229;-82
2023/07/09 15:28:13;;;;;;;7.88;4.55;;;42.20;33.10;;;;;;4897666;29;20230;-82
2023/07/09 15:30:39;;;;;;;5.30;4.72;;;41.70;33.10;;;;;;4902229;29;20622;-83
2023/07/09 15:33:08;;;;;;;6.78;4.22;;;41.60;33.30;;;;;;4918357;29;20226;-81
2023/07/09 15:35:36;;;;;;;9.20;6.00;;;42.00;33.30;;;;;;4909002;29;20303;-83
2023/07/09 15:38:16;;;;;;;5.47;4.53;;;42.40;33.00;;;;;;4929308;29;20288;-81
2023/07/09 15:40:42;;;;;;;5.55;4.43;;;43.00;32.20;;;;;;4930080;29;20209;-80
2023/07/09 15:43:08;;;;;;;5.82;4.28;;;42.80;32.30;;;;;;4921354;29;20203;-80